Data for 04/07/2017

Time Sea-Level Adjusted Pressure Absolute Pressure Temperature Relative Humidity Dew Point   
(mb) (inHg) (mb) (inHg) (C) (F) (%) (C) (F)
00:05 1010 29.83 840 24.81 14 57.3 29 -3.7 25.3
00:10 1010 29.83 840 24.81 13.5 56.3 30 -3.8 25.1
00:15 1010 29.83 840 24.81 13.5 56.2 30 -3.7 25.3
00:20 1010 29.83 840 24.81 13.4 56.1 30 -3.8 25.2
00:25 1010 29.83 840 24.81 12.8 55 34 -2.6 27.3
00:30 1010 29.83 840 24.81 11.4 52.4 36 -2.9 26.7
00:35 1010 29.83 840 24.81 11.1 51.9 37 -3 26.7
00:40 1010 29.83 840 24.81 11 51.8 36 -3.3 26
00:45 1010 29.83 840 24.81 10.9 51.6 38 -2.9 26.9
00:50 1010 29.83 840 24.81 10.7 51.3 38 -3.1 26.4
00:55 1010 29.83 839 24.78 10.6 51.2 38 -3.2 26.3
01:00 1010 29.83 839 24.78 10.7 51.3 38 -3.1 26.5
01:05 1010 29.83 839 24.78 10.6 51 38 -3 26.5
01:10 1010 29.83 839 24.78 10.4 50.8 38 -3.2 26.2
01:15 1010 29.83 839 24.78 10.4 50.8 39 -3.1 26.5
01:20 1010 29.83 839 24.78 10.3 50.5 39 -3 26.5
01:25 1010 29.83 839 24.78 10.1 50.2 39 -3.3 26.1
01:30 1010 29.83 839 24.78 10 49.9 41 -2.8 27
01:35 1010 29.83 839 24.78 9.6 49.3 41 -3 26.5
01:40 1009 29.8 839 24.78 9.5 49.2 41 -2.9 26.8
01:45 1009 29.8 838 24.75 9.4 48.9 42 -3 26.7
01:50 1009 29.8 838 24.75 9.3 48.7 40 -3.5 25.7
01:55 1009 29.8 838 24.75 9.6 49.2 41 -3.1 26.5
02:00 1009 29.8 838 24.75 9.5 49 41 -3.1 26.5
02:05 1009 29.8 838 24.75 9.8 49.6 39 -3.4 25.9
02:10 1009 29.8 838 24.75 9.9 49.7 40 -3 26.6
02:15 1009 29.8 838 24.75 9.6 49.2 40 -3.2 26.2
02:20 1009 29.8 838 24.75 9.7 49.5 40 -3.1 26.4
02:25 1009 29.8 838 24.75 10 50.1 38 -3.5 25.7
02:30 1009 29.8 838 24.75 10.1 50.3 38 -3.5 25.7
02:35 1009 29.8 838 24.75 10.1 50.1 40 -2.9 26.7
02:40 1009 29.8 838 24.75 10 50 38 -3.5 25.8
02:45 1009 29.8 838 24.75 10.1 50.2 40 -3 26.6
02:50 1009 29.8 838 24.75 9.9 49.8 40 -3.2 26.3
02:55 1009 29.8 838 24.75 9.8 49.7 40 -3.1 26.4
03:00 1009 29.8 838 24.75 9.5 49.1 41 -3.1 26.4
03:05 1008 29.77 838 24.75 9.4 48.9 41 -3.2 26.2
03:10 1008 29.77 838 24.75 9.6 49.3 40 -3.5 25.7
03:15 1008 29.77 838 24.75 10.1 50.1 39 -3.2 26.3
03:20 1008 29.77 837 24.72 10 50 39 -3.4 25.8
03:25 1008 29.77 838 24.75 10.1 50.3 38 -3.6 25.4
03:30 1008 29.77 837 24.72 10.5 50.9 37 -3.4 25.9
03:35 1008 29.77 837 24.72 10.3 50.6 38 -3.5 25.8
03:40 1008 29.77 837 24.72 10.2 50.4 38 -3.4 25.9
03:45 1008 29.77 837 24.72 10.2 50.4 38 -3.4 25.9
03:50 1008 29.77 837 24.72 10.1 50.3 38 -3.4 25.9
03:55 1008 29.77 837 24.72 10 49.9 39 -3.5 25.8
04:00 1008 29.77 837 24.72 9.9 49.8 40 -3.2 26.2
04:05 1008 29.77 837 24.72 9.6 49.3 40 -3.3 26.1
04:10 1008 29.77 837 24.72 9.5 49 39 -3.8 25.1
04:15 1008 29.77 837 24.72 9.9 49.9 37 -4 24.7
04:20 1008 29.77 837 24.72 10.3 50.6 37 -3.7 25.4
04:25 1008 29.77 837 24.72 10.2 50.3 38 -3.6 25.5
04:30 1007 29.74 837 24.72 10.5 50.8 36 -3.9 25.1
04:35 1007 29.74 837 24.72 10.4 50.7 37 -3.6 25.6
04:40 1007 29.74 836 24.69 10.1 50.2 39 -3.3 26
04:45 1007 29.74 836 24.69 10.1 50.2 36 -4.2 24.4
04:50 1007 29.74 836 24.69 10.7 51.2 36 -3.9 25
04:55 1007 29.74 836 24.69 10.6 51.1 37 -3.6 25.5
05:00 1007 29.74 836 24.69 10.3 50.6 38 -3.5 25.7
05:05 1007 29.74 836 24.69 10.2 50.3 37 -3.7 25.3
05:10 1007 29.74 836 24.69 10.2 50.3 38 -3.5 25.7
05:15 1007 29.74 836 24.69 10.2 50.3 37 -3.9 25
05:20 1007 29.74 836 24.69 10.5 50.8 36 -3.8 25.2
05:25 1007 29.74 836 24.69 10.5 50.9 35 -4.3 24.3
05:30 1006 29.71 836 24.69 11.2 52.1 34 -4.2 24.5
05:35 1006 29.71 836 24.69 11.6 53 32 -4.4 24.2
05:40 1006 29.71 835 24.66 12.2 53.9 31 -4.4 24
05:45 1006 29.71 835 24.66 12.4 54.2 31 -4.5 24
05:50 1006 29.71 835 24.66 12.6 54.6 30 -4.5 23.9
05:55 1006 29.71 835 24.66 12.6 54.7 30 -4.5 23.8
06:00 1006 29.71 835 24.66 13.3 56 28 -4.7 23.6
06:05 1006 29.71 835 24.66 13.1 55.6 29 -4.3 24.3
06:10 1006 29.71 835 24.66 12.6 54.6 31 -4.1 24.7
06:15 1006 29.71 836 24.69 12.3 54.1 31 -4.3 24.2
06:20 1006 29.71 835 24.66 12.2 53.9 32 -4.2 24.5
06:25 1006 29.71 835 24.66 12.2 54 31 -4.2 24.4
06:30 1006 29.71 835 24.66 13.1 55.6 28 -4.8 23.3
06:35 1006 29.71 835 24.66 13.2 55.7 27 -5.3 22.5
06:40 1006 29.71 835 24.66 14 57.1 26 -5.2 22.6
06:45 1006 29.71 835 24.66 13.9 57 29 -3.7 25.4
06:50 1006 29.71 835 24.66 13.3 55.9 26 -5.8 21.6
06:55 1006 29.71 835 24.66 14.3 57.8 27 -4.3 24.3
07:00 1006 29.71 835 24.66 14.6 58.3 24 -5.9 21.3
07:05 1006 29.71 835 24.66 15.6 60 22 -6.1 21.1
07:10 1006 29.71 835 24.66 15.5 59.9 25 -4.4 24.1
07:15 1006 29.71 835 24.66 15 59 23 -5.8 21.6
07:20 1006 29.71 835 24.66 15.1 59.1 25 -4.7 23.5
07:25 1006 29.71 835 24.66 14.7 58.4 25 -5.1 22.8
07:30 1006 29.71 835 24.66 14.8 58.6 24 -5.6 21.9
07:35 1006 29.71 835 24.66 14.8 58.7 24 -5.7 21.7
07:40 1006 29.71 835 24.66 15 59.1 25 -5 23
07:45 1006 29.71 835 24.66 15.1 59.1 24 -5.3 22.4
07:50 1006 29.71 835 24.66 15 59.1 25 -4.8 23.3
07:55 1006 29.71 835 24.66 15.1 59.3 22 -6.2 20.9
08:00 1006 29.71 835 24.66 15.4 59.8 24 -4.9 23.2
08:05 1006 29.71 836 24.69 15 59 25 -5 22.9
08:10 1006 29.71 835 24.66 15.2 59.4 23 -5.7 21.7
08:15 1006 29.71 835 24.66 15.7 60.2 23 -5.2 22.6
08:20 1006 29.71 835 24.66 15.8 60.5 23 -5.3 22.4
08:25 1006 29.71 835 24.66 15.8 60.5 23 -5.3 22.5
08:30 1005 29.68 835 24.66 15.8 60.5 23 -5.3 22.4
08:35 1006 29.71 835 24.66 15.9 60.5 24 -4.4 24
08:40 1006 29.71 835 24.66 15.8 60.5 24 -4.6 23.8
08:45 1005 29.68 835 24.66 15.9 60.6 25 -4.1 24.6
08:50 1005 29.68 835 24.66 15.9 60.7 25 -4 24.8
08:55 1005 29.68 835 24.66 16 60.7 25 -3.8 25.2
09:00 1006 29.71 835 24.66 16.1 60.9 26 -3.6 25.5
09:05 1005 29.68 835 24.66 16.2 61.2 25 -3.8 25.2
09:10 1005 29.68 835 24.66 16.2 61.2 24 -4 24.8
09:15 1005 29.68 835 24.66 16.1 61 25 -4 24.8
09:20 1006 29.71 835 24.66 16 60.9 24 -4.4 24.1
09:25 1006 29.71 835 24.66 16.1 60.9 25 -3.9 25
09:30 1006 29.71 835 24.66 16 60.8 25 -3.9 25
09:35 1006 29.71 835 24.66 15.9 60.7 26 -3.6 25.6
09:40 1006 29.71 835 24.66 15.8 60.5 26 -3.6 25.6
09:45 1006 29.71 835 24.66 15.7 60.3 26 -3.6 25.6
09:50 1006 29.71 835 24.66 15.6 60.2 27 -3.5 25.8
09:55 1006 29.71 835 24.66 15.6 60.1 27 -3.4 25.8
10:00 1006 29.71 835 24.66 15.5 59.9 27 -3.3 26.1
10:05 1006 29.71 835 24.66 15.5 59.9 28 -3 26.5
10:10 1006 29.71 835 24.66 15.5 59.9 27 -3.2 26.3
10:15 1006 29.71 835 24.66 15.6 60.1 28 -2.8 26.9
10:20 1006 29.71 835 24.66 15.7 60.2 27 -2.9 26.7
10:25 1006 29.71 835 24.66 15.8 60.4 27 -3.2 26.2
10:30 1006 29.71 835 24.66 16.1 61 26 -3.1 26.4
10:35 1006 29.71 835 24.66 16.4 61.6 26 -3.2 26.2
10:40 1006 29.71 835 24.66 16.5 61.8 26 -2.8 26.9
10:45 1006 29.71 835 24.66 16.5 61.6 27 -2.5 27.5
10:50 1006 29.71 835 24.66 16.5 61.8 27 -2.5 27.5
10:55 1006 29.71 835 24.66 16.3 61.4 27 -2.6 27.4
11:00 1006 29.71 836 24.69 16.3 61.3 27 -2.7 27.2
11:05 1006 29.71 836 24.69 16.1 61 28 -2.1 28.2
11:10 1006 29.71 836 24.69 15.9 60.6 28 -2.4 27.6
11:15 1006 29.71 836 24.69 16.1 60.9 28 -2.3 27.8
11:20 1006 29.71 835 24.66 16.2 61.1 28 -2.3 27.8
11:25 1006 29.71 835 24.66 16 60.9 28 -2.2 28.1
11:30 1006 29.71 835 24.66 16.4 61.5 28 -2.2 28
11:35 1006 29.71 835 24.66 16.1 61 28 -2.1 28.2
11:40 1006 29.71 835 24.66 15.8 60.4 28 -2.3 27.8
11:45 1006 29.71 835 24.66 16.1 60.9 28 -2.4 27.6
11:50 1006 29.71 835 24.66 16 60.9 29 -2 28.5
11:55 1006 29.71 835 24.66 15.9 60.7 29 -2 28.5
12:00 1006 29.71 835 24.66 16.2 61.2 28 -2 28.3
12:05 1006 29.71 835 24.66 16.3 61.4 28 -1.9 28.5
12:10 1005 29.68 835 24.66 16.2 61.1 28 -2.1 28.3
12:15 1005 29.68 834 24.63 16.1 60.9 29 -1.9 28.6
12:20 1005 29.68 834 24.63 15.8 60.4 29 -2.2 28
12:25 1005 29.68 834 24.63 15.7 60.3 30 -1.9 28.6
12:30 1005 29.68 834 24.63 15.7 60.3 29 -2.2 28
12:35 1005 29.68 834 24.63 16 60.7 27 -2.9 26.7
12:40 1005 29.68 834 24.63 16 60.8 27 -2.8 26.9
12:45 1005 29.68 834 24.63 16 60.9 28 -2.6 27.4
12:50 1005 29.68 834 24.63 15.9 60.5 28 -2.7 27.1
12:55 1005 29.68 834 24.63 16 60.8 27 -3 26.6
13:00 1005 29.68 834 24.63 16.1 61 27 -3 26.6
13:05 1005 29.68 834 24.63 16 60.7 27 -2.8 26.9
13:10 1005 29.68 834 24.63 16.2 61.1 27 -2.5 27.4
13:15 1005 29.68 834 24.63 16.4 61.5 26 -3.3 26.1
13:20 1005 29.68 834 24.63 16.4 61.5 26 -3.1 26.5
13:25 1005 29.68 834 24.63 16.3 61.3 27 -2.8 27
13:30 1005 29.68 834 24.63 16.3 61.3 26 -3.4 26
13:35 1005 29.68 834 24.63 16.2 61.2 27 -2.8 27
13:40 1005 29.68 834 24.63 16.3 61.3 26 -3 26.5
13:45 1005 29.68 834 24.63 16.6 61.9 27 -2.3 27.9
13:50 1005 29.68 834 24.63 16.7 62 26 -2.6 27.3
13:55 1005 29.68 834 24.63 16.3 61.4 27 -2.8 27
14:00 1005 29.68 834 24.63 16.5 61.7 26 -3.1 26.4
14:05 1005 29.68 834 24.63 16.4 61.5 26 -3 26.5
14:10 1005 29.68 834 24.63 16.6 61.8 25 -3.7 25.3
14:15 1005 29.68 834 24.63 16.6 61.9 25 -3.3 26.1
14:20 1005 29.68 834 24.63 16.9 62.4 25 -3.3 26.1
14:25 1005 29.68 834 24.63 16.6 61.8 26 -3.1 26.3
14:30 1005 29.68 834 24.63 16.6 61.9 24 -3.8 25.2
14:35 1005 29.68 834 24.63 16.5 61.6 25 -3.7 25.3
14:40 1005 29.68 834 24.63 16.4 61.5 25 -3.7 25.3
14:45 1005 29.68 835 24.66 16 60.8 27 -2.7 27.1
14:50 1006 29.71 835 24.66 15 59 39 1.2 34.2
14:55 1006 29.71 835 24.66 12.9 55.2 43 0.7 33.2
15:00 1006 29.71 835 24.66 12.7 54.8 42 0.1 32.1
15:05 1006 29.71 835 24.66 12.9 55.2 34 -2.4 27.6
15:10 1006 29.71 835 24.66 14.1 57.4 37 -0.5 31.1
15:15 1006 29.71 836 24.69 13.4 56.1 42 0.8 33.5
15:20 1007 29.74 836 24.69 12.6 54.6 47 1.7 35.1
15:25 1007 29.74 836 24.69 11.4 52.5 60 3.9 39
15:30 1007 29.74 836 24.69 10.5 50.9 62 3.5 38.3
15:35 1007 29.74 836 24.69 10.2 50.3 59 2.5 36.5
15:40 1007 29.74 836 24.69 10 49.9 60 2.6 36.6
15:45 1007 29.74 836 24.69 10.1 50.2 61 2.9 37.2
15:50 1007 29.74 836 24.69 10.1 50.1 64 3.7 38.7
15:55 1007 29.74 836 24.69 10.1 50.1 63 3.3 38
16:00 1007 29.74 836 24.69 9.9 49.8 62 2.9 37.3
16:05 1007 29.74 837 24.72 9.7 49.5 64 3.4 38
16:10 1007 29.74 837 24.72 9.6 49.2 68 3.9 39.1
16:15 1008 29.77 837 24.72 9.5 49 70 4.3 39.8
16:20 1007 29.74 837 24.72 9.2 48.5 71 4.2 39.6
16:25 1007 29.74 836 24.69 9 48.2 71 4.1 39.4
16:30 1007 29.74 836 24.69 9.2 48.5 68 3.5 38.4
16:35 1007 29.74 836 24.69 9.4 48.9 69 3.9 39.1
16:40 1007 29.74 836 24.69 9.5 49.1 68 3.9 39.1
16:45 1007 29.74 836 24.69 9.7 49.5 65 3.5 38.3
16:50 1007 29.74 836 24.69 9.8 49.7 65 3.6 38.5
16:55 1007 29.74 836 24.69 9.9 49.8 64 3.5 38.4
17:00 1007 29.74 836 24.69 9.9 49.8 65 3.8 38.8
17:05 1007 29.74 836 24.69 10 50 64 3.5 38.4
17:10 1007 29.74 836 24.69 10.2 50.3 62 3.2 37.7
17:15 1007 29.74 836 24.69 10.1 50.2 62 3.2 37.7
17:20 1007 29.74 836 24.69 10.2 50.3 61 3 37.3
17:25 1007 29.74 836 24.69 10.2 50.4 59 2.5 36.6
17:30 1007 29.74 836 24.69 10.4 50.6 57 2.3 36.1
17:35 1007 29.74 836 24.69 10.6 51.1 57 2.4 36.3
17:40 1007 29.74 836 24.69 10.7 51.3 63 3.9 39
17:45 1007 29.74 836 24.69 10.4 50.6 67 4.6 40.2
17:50 1007 29.74 836 24.69 9.9 49.7 69 4.4 39.9
17:55 1007 29.74 836 24.69 9.5 49.1 68 3.9 39.1
18:00 1007 29.74 837 24.72 9.3 48.8 69 4 39.2
18:05 1007 29.74 837 24.72 9.2 48.5 71 4.3 39.7
18:10 1008 29.77 837 24.72 8.8 47.9 73 4.4 39.9
18:15 1008 29.77 837 24.72 8.5 47.3 74 4.2 39.5
18:20 1008 29.77 837 24.72 8.3 47 74 3.9 39
18:25 1008 29.77 837 24.72 8.1 46.6 74 3.7 38.7
18:30 1007 29.74 836 24.69 7.8 46 77 4.1 39.3
18:35 1008 29.77 837 24.72 7.7 45.8 77 4 39.2
18:40 1008 29.77 837 24.72 7.7 45.8 79 4.3 39.7
18:45 1007 29.74 837 24.72 7.6 45.8 79 4.3 39.7
18:50 1007 29.74 837 24.72 7.1 44.8 83 4.4 40
18:55 1008 29.77 837 24.72 6.8 44.3 85 4.5 40.1
19:00 1008 29.77 837 24.72 6.9 44.5 85 4.6 40.3
19:05 1008 29.77 837 24.72 7.1 44.8 83 4.4 40
19:10 1008 29.77 837 24.72 7.3 45.1 81 4.3 39.7
19:15 1008 29.77 837 24.72 7.3 45.1 76 3.3 37.9
19:20 1008 29.77 837 24.72 7 44.6 77 3.2 37.8
19:25 1008 29.77 837 24.72 6.8 44.3 79 3.4 38.2
19:30 1008 29.77 837 24.72 6.7 44.1 80 3.5 38.3
19:35 1008 29.77 838 24.75 6.7 44 79 3.4 38.1
19:40 1008 29.77 837 24.72 6.6 43.9 80 3.3 38
19:45 1008 29.77 838 24.75 6.5 43.7 80 3.2 37.8
19:50 1008 29.77 838 24.75 6.5 43.8 79 3.2 37.7
19:55 1008 29.77 838 24.75 6.4 43.6 79 3.1 37.6
20:00 1009 29.8 838 24.75 6.4 43.5 79 3.1 37.5
20:05 1009 29.8 838 24.75 6.5 43.6 79 3.1 37.6
20:10 1009 29.8 838 24.75 6.5 43.6 79 3.2 37.7
20:15 1009 29.8 838 24.75 6.5 43.8 79 3.2 37.7
20:20 1009 29.8 838 24.75 6.6 43.8 80 3.4 38
20:25 1009 29.8 838 24.75 6.7 44.1 76 2.9 37.2
20:30 1009 29.8 838 24.75 6.7 44.1 77 3 37.4
20:35 1009 29.8 838 24.75 6.6 43.9 78 3.1 37.6
20:40 1009 29.8 838 24.75 6.7 44.1 80 3.6 38.4
20:45 1009 29.8 838 24.75 6.7 44.1 80 3.6 38.4
20:50 1009 29.8 838 24.75 6.6 43.9 78 3.1 37.5
20:55 1009 29.8 839 24.78 6.7 44.1 77 3 37.4
21:00 1010 29.83 839 24.78 6.6 43.9 76 2.7 36.8
21:05 1010 29.83 839 24.78 6.3 43.4 75 2.3 36.1
21:10 1010 29.83 839 24.78 6.2 43.2 78 2.7 36.8
21:15 1010 29.83 839 24.78 6.3 43.3 77 2.6 36.7
21:20 1010 29.83 839 24.78 6.4 43.6 79 3.1 37.5
21:25 1010 29.83 839 24.78 6.4 43.6 79 3.1 37.6
21:30 1010 29.83 839 24.78 6.4 43.6 80 3.3 37.9
21:35 1010 29.83 839 24.78 6.4 43.6 78 2.8 37.1
21:40 1010 29.83 839 24.78 6.4 43.5 78 2.9 37.1
21:45 1010 29.83 839 24.78 6.4 43.4 77 2.5 36.6
21:50 1010 29.83 839 24.78 6.2 43.2 73 1.8 35.2
21:55 1010 29.83 839 24.78 6.1 43 75 2 35.6
22:00 1010 29.83 839 24.78 6 42.8 74 1.7 35.1
22:05 1010 29.83 839 24.78 6 42.7 73 1.5 34.7
22:10 1010 29.83 839 24.78 6 42.8 72 1.4 34.6
22:15 1010 29.83 839 24.78 5.8 42.4 72 1.2 34.1
22:20 1010 29.83 839 24.78 5.7 42.2 75 1.6 34.9
22:25 1010 29.83 839 24.78 5.7 42.2 75 1.5 34.7
22:30 1010 29.83 839 24.78 5.6 42.1 76 1.7 35
22:35 1010 29.83 839 24.78 5.4 41.8 76 1.5 34.8
22:40 1010 29.83 839 24.78 5.4 41.6 77 1.7 35
22:45 1010 29.83 839 24.78 5.3 41.5 76 1.4 34.5
22:50 1010 29.83 839 24.78 5.3 41.6 70 0.4 32.7
22:55 1010 29.83 839 24.78 5.5 41.9 70 0.4 32.7
23:00 1010 29.83 839 24.78 5.5 41.8 72 0.9 33.5
23:05 1010 29.83 839 24.78 5.3 41.5 75 1.3 34.3
23:10 1010 29.83 839 24.78 5.1 41.2 78 1.5 34.8
23:15 1010 29.83 839 24.78 5 41.1 77 1.4 34.5
23:20 1009 29.8 839 24.78 5 41 77 1.4 34.4
23:25 1009 29.8 839 24.78 5 41 78 1.5 34.6
23:30 1009 29.8 838 24.75 4.9 40.9 77 1.3 34.3
23:35 1009 29.8 838 24.75 5 40.9 76 1.1 33.9
23:40 1009 29.8 838 24.75 5 41 75 0.9 33.6
23:45 1009 29.8 838 24.75 4.9 40.8 75 0.8 33.4
23:50 1009 29.8 838 24.75 4.8 40.7 76 1 33.8
23:55 1009 29.8 838 24.75 4.8 40.6 76 0.8 33.5
24:00 1009 29.8 839 24.78 4.7 40.4 77 1.1 33.9